METAR AND TAF INFORMATION
METAR FOR LIBR
ADDS - METARS form results

(0707 UTC 18 October 2019)
Data provider http://aviationweather.gov/metar/data/
 
METAR text: LIBR 180650Z 29006KT 9999 FEW025 18/17 Q1019
Conditions at: LIBR (BRINDISI/CASALE , IT) observed 0650 UTC 18 October 2019
Temperature: 18.0°C (64°F)
Dewpoint: 17.0°C (63°F) [RH = 94%]
Pressure (altimeter): 30.09 inches Hg (1019.0 mb)
Winds: from the WNW (290 degrees) at 7 MPH (6 knots; 3.1 m/s)
Visibility: 6 or more miles (10+ km)
Ceiling: at least 12,000 feet AGL
Clouds: few clouds at 2500 feet AGL
Weather: no significant weather observed at this time

METAR text: LIBR 180620Z 28005KT 9999 FEW025 18/16 Q1018
Conditions at: LIBR (BRINDISI/CASALE , IT) observed 0620 UTC 18 October 2019
Temperature: 18.0°C (64°F)
Dewpoint: 16.0°C (61°F) [RH = 88%]
Pressure (altimeter): 30.06 inches Hg (1018.0 mb)
Winds: from the W (280 degrees) at 6 MPH (5 knots; 2.6 m/s)
Visibility: 6 or more miles (10+ km)
Ceiling: at least 12,000 feet AGL
Clouds: few clouds at 2500 feet AGL
Weather: no significant weather observed at this time

Forecast for: LIBR (BRINDISI/CASALE , IT)
Text: TAF LIBR 180500Z 1806/1906 33012KT 9999 SCT030
Forecast period: 0600 to 1600 UTC 18 October 2019
Forecast type: FROM: standard forecast or significant change
Winds: from the NNW (330 degrees) at 14 MPH (12 knots; 6.2 m/s)
Visibility: 6 or more miles 10+ km)
Ceiling: at least 12,000 feet AGL
Clouds: scattered clouds at 3000 feet AGL
Weather: no significant weather forecast for this period
Text: BECMG 1816/1819 VRB05KT
Forecast period: 1600 UTC 18 October 2019 to 0600 UTC 19 October 2019
Forecast type: BECOMING: Conditions expected to become as follows by 1900 UTC 18 October 2019
Winds: variable direction winds at 6 MPH (5 knots; 2.6 m/s)
Visibility: 6 or more miles 10+ km)
Ceiling: at least 12,000 feet AGL
Clouds: scattered clouds at 3000 feet AGL
Weather: no significant weather forecast for this period

 AIRPORT MAP

 RUNWAY INFORMATION
Runway 05 Runway length 6132 ft Runway width 148 ft
Runway elevation 46 ft Runway displaced threshold 0 ft Runway heading 53
Runway 23 Runway length 6132 ft Runway width 148 ft
Runway elevation 13 ft Runway displaced threshold 230 ft Runway heading 233
Runway 13 Runway length 8307 ft Runway width 148 ft
Runway elevation 29 ft Runway displaced threshold 0 ft Runway heading 137
Runway 31 Runway length 8307 ft Runway width 148 ft
Runway elevation 26 ft Runway displaced threshold 0 ft Runway heading 317

 AIRPORT FREQUENCIES
Type APP Name BRINDISI A Frequency 36.365 MHZ
Type APP Name BRINDISI A Frequency 118.4 MHZ
Type GND Name GND Frequency 31.355 MHZ
Type ILS RWY 32 Name Frequency 109.5 MHZ
Type TWR Name BRINDISI T Frequency 118.1 MHZ

 AIRPORT NEAR NAVIGATION AIDS
Type VORTAC Name Brindisi Frequency 113200 KHZ
Type NDB Name Brindisi Frequency 364 KHZ



Powered by Heron Airways VA. All Rights Reserved © 2009 [v2.6.2]